Time;durP1;ratioP1;P1;durP2;ratioP2;P2;SDS_P1;SDS_P2;PMS_P1;PMS_P2;Temp;Humidity;BMP_temperature;BMP_pressure;BME280_temperature;BME280_humidity;BME280_pressure;Samples;Min_cycle;Max_cycle;Signal;HPM_P1;HPM_P2
2022/10/16 00:04:20;;;;;;;1.20;0.30;;;;;;;19.52;47.51;100949.38;16121097;19;129515;-40
2022/10/16 00:09:42;;;;;;;1.17;0.40;;;;;;;19.52;47.75;100929.97;16124443;19;129415;-40
2022/10/16 00:15:05;;;;;;;0.40;0.20;;;;;;;19.50;47.98;100937.69;16122323;19;129678;-39
2022/10/16 00:20:27;;;;;;;0.35;0.25;;;;;;;19.50;47.56;100932.16;16120622;19;129517;-40
2022/10/16 00:26:01;;;;;;;1.58;0.35;;;;;;;19.52;47.63;100944.66;16120332;19;129440;-41
2022/10/16 00:31:24;;;;;;;1.25;0.30;;;;;;;19.50;47.90;100952.41;16121362;19;129248;-40
2022/10/16 00:36:45;;;;;;;0.52;0.20;;;;;;;19.48;47.67;100942.66;16122426;19;129212;-40
2022/10/16 00:42:15;;;;;;;0.57;0.17;;;;;;;19.49;47.75;100944.34;16120468;19;129495;-39
2022/10/16 00:47:42;;;;;;;0.52;0.40;;;;;;;19.47;47.64;100947.38;16120371;19;130193;-40
2022/10/16 00:53:04;;;;;;;0.65;0.30;;;;;;;19.47;47.88;100939.03;16120315;19;129417;-40
2022/10/16 00:58:26;;;;;;;3.13;0.40;;;;;;;19.46;47.90;100939.28;16116778;19;129287;-38
2022/10/16 01:03:47;;;;;;;0.85;0.22;;;;;;;19.45;47.60;100938.44;16129270;19;129456;-38
2022/10/16 01:09:13;;;;;;;0.30;0.30;;;;;;;19.46;47.51;100942.06;16135078;19;129900;-38
2022/10/16 01:14:50;;;;;;;1.08;0.35;;;;;;;19.46;47.71;100950.38;16135803;19;131685;-38
2022/10/16 01:20:39;;;;;;;0.38;0.20;;;;;;;19.45;47.60;100957.00;16130135;19;129383;-38
2022/10/16 01:26:32;;;;;;;0.47;0.40;;;;;;;19.43;47.78;100962.81;16133398;19;129810;-39
2022/10/16 01:31:59;;;;;;;0.43;0.30;;;;;;;19.41;47.46;100959.47;16134679;19;129587;-39
2022/10/16 01:37:55;;;;;;;0.75;0.35;;;;;;;19.42;47.79;100950.03;16134286;19;129602;-40
2022/10/16 01:43:23;;;;;;;0.60;0.30;;;;;;;19.40;47.80;100955.00;16134894;19;129711;-40
2022/10/16 01:48:47;;;;;;;2.63;0.30;;;;;;;19.41;47.50;100953.06;16132097;19;129319;-40
2022/10/16 01:54:10;;;;;;;0.20;0.20;;;;;;;19.40;47.78;100956.94;16131384;19;129586;-39
2022/10/16 01:59:37;;;;;;;1.60;0.28;;;;;;;19.40;47.51;100951.41;16129545;19;129444;-39
2022/10/16 02:05:15;;;;;;;2.05;0.40;;;;;;;19.39;47.41;100942.22;16134024;19;129785;-39
2022/10/16 02:10:38;;;;;;;2.20;0.20;;;;;;;19.37;47.41;100953.56;16131138;19;129783;-39
2022/10/16 02:16:03;;;;;;;0.85;0.30;;;;;;;19.36;47.83;100946.34;16128074;19;130923;-39
2022/10/16 02:21:32;;;;;;;0.43;0.17;;;;;;;19.37;47.79;100941.66;16128681;19;129584;-39
2022/10/16 02:27:05;;;;;;;1.05;0.30;;;;;;;19.37;47.49;100969.38;16131228;19;132697;-40
2022/10/16 02:32:31;;;;;;;0.30;0.20;;;;;;;19.35;47.75;100964.06;16130125;19;129617;-39
2022/10/16 02:37:55;;;;;;;0.20;0.20;;;;;;;19.34;47.62;100951.28;16129940;19;129308;-40
2022/10/16 02:43:17;;;;;;;0.60;0.20;;;;;;;19.33;47.59;100963.47;16131255;19;129526;-39
2022/10/16 02:48:39;;;;;;;0.22;0.10;;;;;;;19.33;47.35;100962.66;16126910;19;129773;-40
2022/10/16 02:54:02;;;;;;;0.15;0.15;;;;;;;19.33;47.50;100962.66;16131020;19;129854;-40
2022/10/16 02:59:23;;;;;;;0.40;0.20;;;;;;;19.32;47.51;100970.13;16126442;19;129797;-39
2022/10/16 03:04:45;;;;;;;0.68;0.20;;;;;;;19.31;47.58;100982.34;16125055;19;130341;-38
2022/10/16 03:10:07;;;;;;;0.30;0.20;;;;;;;19.31;47.73;100978.69;16125275;19;130512;-38
2022/10/16 03:15:30;;;;;;;0.40;0.30;;;;;;;19.30;47.53;100986.19;16124634;19;130056;-40
2022/10/16 03:20:51;;;;;;;0.20;0.10;;;;;;;19.29;47.48;100978.97;16127755;19;130254;-40
2022/10/16 03:26:13;;;;;;;0.40;0.30;;;;;;;19.29;47.47;100997.53;16126361;19;129932;-40
2022/10/16 03:31:35;;;;;;;0.57;0.20;;;;;;;19.27;47.28;101000.56;16126067;19;130876;-41
2022/10/16 03:36:56;;;;;;;0.20;0.20;;;;;;;19.28;47.64;101004.16;16124878;19;129586;-40
2022/10/16 03:42:18;;;;;;;0.35;0.15;;;;;;;19.27;47.53;101006.09;16124991;19;130180;-40
2022/10/16 03:47:41;;;;;;;0.43;0.30;;;;;;;19.27;47.70;101000.56;16125482;19;131710;-39
2022/10/16 03:53:03;;;;;;;0.30;0.30;;;;;;;19.27;47.27;101008.88;16123663;19;129529;-39
2022/10/16 03:58:25;;;;;;;0.20;0.20;;;;;;;19.27;47.71;100994.16;16123798;19;130750;-39
2022/10/16 04:03:46;;;;;;;0.10;0.10;;;;;;;19.24;47.51;101006.59;16121802;19;129690;-38
2022/10/16 04:09:08;;;;;;;0.10;0.10;;;;;;;19.26;47.51;101012.72;16122014;19;129339;-38
2022/10/16 04:14:30;;;;;;;0.20;0.20;;;;;;;19.23;47.59;101038.19;16124307;19;129954;-39
2022/10/16 04:19:52;;;;;;;0.17;0.17;;;;;;;19.23;47.41;101032.63;16123083;19;131818;-39
2022/10/16 04:25:13;;;;;;;0.22;0.20;;;;;;;19.23;47.62;101027.09;16123514;19;129443;-38
2022/10/16 04:30:38;;;;;;;0.10;0.10;;;;;;;19.23;47.29;101040.97;16122155;19;129924;-39
2022/10/16 04:36:01;;;;;;;0.30;0.13;;;;;;;19.21;47.25;101046.78;16119950;19;135861;-40
2022/10/16 04:41:23;;;;;;;0.30;0.20;;;;;;;19.22;47.65;101050.38;16121260;19;129268;-39
2022/10/16 04:46:44;;;;;;;1.17;0.30;;;;;;;19.21;47.21;101052.31;16121903;19;129677;-39
2022/10/16 04:52:06;;;;;;;0.47;0.20;;;;;;;19.20;47.65;101066.41;16121086;19;129455;-38
2022/10/16 04:57:29;;;;;;;0.10;0.10;;;;;;;19.20;47.52;101070.00;16118926;19;129587;-38
2022/10/16 05:02:51;;;;;;;0.47;0.20;;;;;;;19.20;47.46;101074.72;16119444;19;129763;-39
2022/10/16 05:08:14;;;;;;;0.13;0.13;;;;;;;19.19;47.18;101078.59;16119523;19;129377;-39
2022/10/16 05:13:36;;;;;;;0.20;0.10;;;;;;;19.19;47.34;101064.72;16120276;19;130021;-38
2022/10/16 05:18:58;;;;;;;0.13;0.10;;;;;;;19.20;47.40;101085.81;16119458;19;130274;-42
2022/10/16 05:24:39;;;;;;;0.10;0.10;;;;;;;19.18;47.13;101088.81;16120025;19;134292;-39
2022/10/16 05:30:02;;;;;;;0.28;0.28;;;;;;;19.19;47.56;101103.53;16116709;19;129429;-38
2022/10/16 05:35:27;;;;;;;1.25;0.20;;;;;;;19.17;47.17;101108.50;16115946;19;129131;-39
2022/10/16 05:40:54;;;;;;;0.77;0.20;;;;;;;19.16;47.58;101107.63;16117864;19;129166;-40
2022/10/16 05:46:16;;;;;;;0.45;0.10;;;;;;;19.17;47.53;101125.97;16120622;19;130076;-38
2022/10/16 05:51:38;;;;;;;1.98;0.10;;;;;;;19.16;47.32;101140.09;16131225;19;130994;-39
2022/10/16 05:57:00;;;;;;;0.52;0.30;;;;;;;19.18;47.13;101135.97;16135930;19;132134;-39
2022/10/16 06:02:22;;;;;;;0.30;0.10;;;;;;;19.24;47.37;101127.81;16130400;19;129296;-39
2022/10/16 06:07:43;;;;;;;0.28;0.20;;;;;;;19.30;47.32;101146.22;16132909;19;129272;-39
2022/10/16 06:13:05;;;;;;;0.40;0.20;;;;;;;19.33;47.22;101137.41;16132869;19;129278;-39
2022/10/16 06:18:28;;;;;;;0.40;0.20;;;;;;;19.35;46.76;101147.16;16130152;19;129328;-39
2022/10/16 06:23:51;;;;;;;0.10;0.10;;;;;;;19.36;46.88;101151.63;16128627;19;129480;-39
2022/10/16 06:29:13;;;;;;;0.15;0.10;;;;;;;19.37;47.04;101163.59;16128671;19;130596;-41
2022/10/16 06:34:34;;;;;;;0.13;0.13;;;;;;;19.36;46.70;101178.53;16131626;19;134235;-39
2022/10/16 06:39:58;;;;;;;0.10;0.10;;;;;;;19.35;46.90;101186.00;16130950;19;129604;-40
2022/10/16 06:45:19;;;;;;;0.25;0.20;;;;;;;19.34;46.63;101197.34;16130265;19;132521;-39
2022/10/16 06:50:41;;;;;;;0.30;0.30;;;;;;;19.33;47.15;101209.53;16134676;19;129436;-39
2022/10/16 06:56:15;;;;;;;0.20;0.20;;;;;;;19.33;46.66;101215.91;16128355;19;130040;-38
2022/10/16 07:01:36;;;;;;;0.65;0.20;;;;;;;19.31;46.81;101220.91;16132211;19;130097;-39
2022/10/16 07:07:00;;;;;;;3.40;0.10;;;;;;;19.31;46.66;101237.53;16126296;19;130496;-38
2022/10/16 07:12:27;;;;;;;0.20;0.20;;;;;;;19.30;47.11;101258.03;16122815;19;129393;-38
2022/10/16 07:17:49;;;;;;;1.38;0.20;;;;;;;19.29;46.65;101261.03;16126647;19;129704;-38
2022/10/16 07:23:11;;;;;;;4.28;0.40;;;;;;;19.29;46.83;101266.59;16123167;19;130041;-38
2022/10/16 07:28:33;;;;;;;0.90;0.20;;;;;;;19.28;46.93;101279.63;16126064;19;128989;-37
2022/10/16 07:33:58;;;;;;;1.77;0.20;;;;;;;19.28;46.84;101287.09;16123984;19;129340;-39
2022/10/16 07:39:19;;;;;;;2.80;0.30;;;;;;;19.24;46.86;101303.38;16122596;19;132712;-39
2022/10/16 07:44:41;;;;;;;2.28;0.40;;;;;;;19.25;46.97;101309.78;16126084;19;130562;-39
2022/10/16 07:50:03;;;;;;;1.90;0.30;;;;;;;19.25;46.69;101320.88;16123678;19;129374;-38
2022/10/16 07:55:25;;;;;;;2.80;0.30;;;;;;;19.25;47.17;101323.66;16123962;19;129186;-39
2022/10/16 08:00:47;;;;;;;0.70;0.30;;;;;;;19.25;46.68;101337.53;16121737;19;130197;-38
2022/10/16 08:06:08;;;;;;;0.77;0.38;;;;;;;19.24;46.70;101342.22;16120429;19;129517;-38
2022/10/16 08:11:31;;;;;;;3.92;0.30;;;;;;;19.24;46.91;101336.66;16117929;19;131411;-39
2022/10/16 08:16:53;;;;;;;3.15;0.75;;;;;;;19.24;46.94;101346.94;16122562;19;129680;-38
2022/10/16 08:22:15;;;;;;;3.50;0.40;;;;;;;19.24;46.76;101353.31;16122156;19;134522;-38
2022/10/16 08:27:36;;;;;;;2.13;0.25;;;;;;;19.24;47.13;101355.25;16123180;19;129572;-38
2022/10/16 08:32:58;;;;;;;1.45;0.20;;;;;;;19.24;46.69;101358.84;16123544;19;129488;-39
2022/10/16 08:38:20;;;;;;;1.52;0.50;;;;;;;19.25;46.71;101365.25;16123467;19;134955;-38
2022/10/16 08:44:13;;;;;;;2.17;0.22;;;;;;;19.25;46.69;101377.19;16122568;19;129589;-38
2022/10/16 08:49:36;;;;;;;1.30;0.22;;;;;;;19.24;46.98;101380.22;16120129;19;129796;-38
2022/10/16 08:54:58;;;;;;;3.08;0.50;;;;;;;19.23;47.14;101382.13;16120197;19;129840;-39
2022/10/16 09:00:20;;;;;;;2.25;0.28;;;;;;;19.23;46.76;101384.91;16121450;19;130895;-39
2022/10/16 09:06:20;;;;;;;2.83;0.40;;;;;;;19.24;46.90;101400.47;16121232;19;129004;-39
2022/10/16 09:12:32;;;;;;;1.23;0.20;;;;;;;19.24;46.93;101403.22;16109722;19;129646;-40
2022/10/16 09:18:06;;;;;;;1.15;0.15;;;;;;;19.23;46.99;101401.53;16110711;19;129499;-39
2022/10/16 09:23:30;;;;;;;1.35;0.65;;;;;;;19.28;47.11;101404.47;16114814;19;132290;-39
2022/10/16 09:28:53;;;;;;;3.53;0.40;;;;;;;19.32;47.03;101405.66;16125973;19;130582;-38
2022/10/16 09:34:39;;;;;;;0.45;0.20;;;;;;;19.37;46.51;101411.34;16125592;19;133649;-38
2022/10/16 09:40:00;;;;;;;1.47;0.27;;;;;;;19.38;46.52;101413.03;16124866;19;129664;-39
2022/10/16 09:45:28;;;;;;;1.10;0.30;;;;;;;19.41;46.44;101408.09;16124027;19;129303;-38
2022/10/16 09:51:00;;;;;;;2.00;0.40;;;;;;;19.44;46.86;101418.72;16133139;19;129461;-39
2022/10/16 09:56:33;;;;;;;3.22;0.55;;;;;;;19.44;46.69;101425.09;16131644;19;130510;-39
2022/10/16 10:01:55;;;;;;;2.33;0.50;;;;;;;19.45;46.86;101420.38;16134609;19;132755;-40
2022/10/16 10:07:23;;;;;;;14.55;1.40;;;;;;;19.44;46.48;101424.25;16133587;19;129448;-40
2022/10/16 10:12:45;;;;;;;5.32;0.88;;;;;;;19.45;46.95;101431.47;16129003;19;129927;-41
2022/10/16 10:18:21;;;;;;;11.75;1.30;;;;;;;19.47;46.89;101429.31;16130244;19;129466;-42
2022/10/16 10:23:43;;;;;;;11.18;1.50;;;;;;;19.46;46.63;101441.50;16129991;19;129459;-40
2022/10/16 10:29:19;;;;;;;7.18;1.30;;;;;;;19.48;46.70;101450.44;16129370;19;129544;-39
2022/10/16 10:35:01;;;;;;;7.20;1.63;;;;;;;19.48;46.57;101444.88;16127240;19;129474;-39
2022/10/16 10:40:49;;;;;;;10.65;1.40;;;;;;;19.48;46.81;101451.28;16129213;19;130189;-39
2022/10/16 10:46:31;;;;;;;9.90;1.70;;;;;;;19.48;46.79;101458.75;16128249;19;130172;-40
2022/10/16 10:52:01;;;;;;;7.07;1.50;;;;;;;19.47;46.64;101446.81;16128685;19;129016;-41
2022/10/16 10:57:39;;;;;;;10.85;1.15;;;;;;;19.53;46.29;101445.84;16126689;19;128989;-40
2022/10/16 11:03:32;;;;;;;7.07;1.35;;;;;;;19.53;46.37;101458.91;16126503;19;129700;-43
2022/10/16 11:09:18;;;;;;;13.52;1.23;;;;;;;19.53;46.82;101459.72;16119238;19;129985;-40
2022/10/16 11:14:45;;;;;;;12.53;1.07;;;;;;;19.57;46.63;101462.84;16127225;19;131111;-40
2022/10/16 11:20:31;;;;;;;9.48;1.38;;;;;;;19.65;46.54;101464.44;16123127;19;130138;-39
2022/10/16 11:25:59;;;;;;;8.20;1.57;;;;;;;19.70;46.68;101456.25;16124713;19;130842;-40
2022/10/16 11:31:27;;;;;;;6.38;0.98;;;;;;;19.79;46.42;101463.13;16123493;19;129949;-40
2022/10/16 11:37:09;;;;;;;5.95;1.15;;;;;;;19.89;46.36;101468.09;16124175;19;130360;-40
2022/10/16 11:42:39;;;;;;;10.20;1.30;;;;;;;19.97;45.98;101459.38;16122138;19;129387;-40
2022/10/16 11:48:22;;;;;;;12.82;1.50;;;;;;;20.00;46.40;101460.84;16122250;19;129387;-40
2022/10/16 11:54:02;;;;;;;7.15;1.38;;;;;;;20.03;46.04;101465.09;16129843;19;130190;-40
2022/10/16 11:59:33;;;;;;;6.25;1.27;;;;;;;20.06;45.95;101468.22;16123986;19;129590;-39
2022/10/16 12:05:15;;;;;;;7.20;1.33;;;;;;;20.08;46.10;101462.41;16125082;19;134102;-40
2022/10/16 12:10:38;;;;;;;9.45;1.35;;;;;;;20.11;46.16;101457.25;16124512;19;129536;-40
2022/10/16 12:16:22;;;;;;;9.40;1.10;;;;;;;20.14;45.90;101455.91;16124156;19;132575;-44
2022/10/16 12:21:45;;;;;;;6.72;0.90;;;;;;;20.14;46.01;101458.69;16122095;19;129625;-39
2022/10/16 12:27:27;;;;;;;11.68;1.42;;;;;;;20.14;46.11;101453.94;16123895;19;129635;-40
2022/10/16 12:32:58;;;;;;;5.50;0.82;;;;;;;20.14;45.91;101456.72;16123437;19;129254;-40
2022/10/16 12:38:25;;;;;;;4.97;0.82;;;;;;;20.15;45.91;101463.16;16123226;19;132819;-39
2022/10/16 12:43:47;;;;;;;7.50;1.00;;;;;;;20.14;46.05;101464.22;16121518;19;129300;-39
2022/10/16 12:49:12;;;;;;;13.20;1.13;;;;;;;20.17;46.44;101455.41;16119969;19;129983;-39
2022/10/16 12:54:38;;;;;;;7.43;1.08;;;;;;;20.21;46.10;101455.78;16120970;19;130102;-39
2022/10/16 13:00:36;;;;;;;6.70;0.77;;;;;;;20.25;46.56;101452.25;16132259;19;132039;-39
2022/10/16 13:06:30;;;;;;;12.32;1.10;;;;;;;20.26;46.67;101481.72;16139358;19;130100;-39
2022/10/16 13:12:10;;;;;;;17.92;1.50;;;;;;;20.30;46.55;101465.41;16133809;19;129565;-39
2022/10/16 13:17:59;;;;;;;12.15;1.20;;;;;;;20.32;46.60;101485.47;16133457;19;129204;-40
2022/10/16 13:23:33;;;;;;;8.65;0.90;;;;;;;20.33;46.58;101489.06;16133094;19;130022;-39
2022/10/16 13:29:00;;;;;;;10.90;0.82;;;;;;;20.36;46.98;101470.00;16135602;19;131558;-40
2022/10/16 13:34:22;;;;;;;67.13;3.42;;;;;;;20.39;47.02;101479.78;16129434;19;129151;-40
2022/10/16 13:39:44;;;;;;;25.38;2.33;;;;;;;20.39;46.80;101493.66;16133243;19;129969;-41
2022/10/16 13:45:18;;;;;;;27.27;2.33;;;;;;;20.43;46.95;101478.19;16132098;19;130276;-40
2022/10/16 13:50:40;;;;;;;31.73;2.22;;;;;;;20.42;47.04;101484.84;16132040;19;130195;-40
2022/10/16 13:56:07;;;;;;;22.00;2.15;;;;;;;20.42;47.40;101470.94;16131042;19;129725;-41
2022/10/16 14:01:42;;;;;;;22.30;1.75;;;;;;;20.40;46.96;101454.50;16128419;19;129655;-40
2022/10/16 14:07:04;;;;;;;19.00;1.77;;;;;;;20.37;46.86;101465.28;16131221;19;130013;-39
2022/10/16 14:12:26;;;;;;;21.58;1.27;;;;;;;20.35;46.94;101456.34;16126429;19;130640;-40
2022/10/16 14:17:51;;;;;;;22.08;1.45;;;;;;;20.33;46.91;101475.19;16129969;19;129375;-39
2022/10/16 14:23:22;;;;;;;12.07;1.20;;;;;;;20.29;47.25;101470.13;16125882;19;129498;-39
2022/10/16 14:28:46;;;;;;;12.20;0.90;;;;;;;20.24;46.77;101467.22;16129161;19;129698;-40
2022/10/16 14:34:27;;;;;;;11.60;0.98;;;;;;;20.21;47.09;101467.72;16131379;19;131024;-40
2022/10/16 14:39:50;;;;;;;9.20;1.20;;;;;;;20.17;47.15;101460.97;16129689;19;129176;-40
2022/10/16 14:45:12;;;;;;;10.65;1.10;;;;;;;20.14;47.22;101475.34;16124876;19;129031;-40
2022/10/16 14:50:34;;;;;;;10.68;1.02;;;;;;;20.12;47.05;101463.63;16127746;19;130309;-39
2022/10/16 14:55:56;;;;;;;6.47;0.77;;;;;;;20.09;46.83;101462.19;16125280;19;129801;-39
2022/10/16 15:01:19;;;;;;;7.65;1.02;;;;;;;20.06;46.80;101447.94;16125089;19;129666;-39
2022/10/16 15:06:41;;;;;;;9.65;1.00;;;;;;;20.04;46.88;101447.34;16126406;19;130604;-40
2022/10/16 15:12:02;;;;;;;5.57;0.80;;;;;;;20.01;47.35;101458.94;16122288;19;129951;-40
2022/10/16 15:17:24;;;;;;;8.63;0.85;;;;;;;19.98;47.17;101463.84;16123194;19;129649;-40
2022/10/16 15:22:47;;;;;;;4.22;0.60;;;;;;;19.97;47.20;101456.59;16121440;19;129159;-40
2022/10/16 15:28:10;;;;;;;4.28;0.57;;;;;;;19.95;47.18;101438.50;16122411;19;129365;-40
2022/10/16 15:33:34;;;;;;;3.22;0.50;;;;;;;19.91;47.44;101456.72;16123529;19;129646;-40
2022/10/16 15:39:00;;;;;;;6.20;0.60;;;;;;;19.89;47.48;101459.75;16123741;19;130123;-40
2022/10/16 15:44:23;;;;;;;3.92;0.50;;;;;;;19.87;47.17;101452.75;16123261;19;129083;-39
2022/10/16 15:49:45;;;;;;;6.97;0.60;;;;;;;19.86;47.00;101451.06;16123020;19;129604;-39
2022/10/16 15:55:09;;;;;;;10.65;1.17;;;;;;;19.86;47.15;101449.13;16120942;19;129314;-39
2022/10/16 16:00:31;;;;;;;9.57;1.52;;;;;;;19.89;47.14;101420.88;16121669;19;130218;-39
2022/10/16 16:05:53;;;;;;;8.40;1.35;;;;;;;19.89;47.06;101414.47;16119986;19;129323;-40
2022/10/16 16:11:16;;;;;;;3.90;1.05;;;;;;;19.93;46.96;101410.13;16122037;19;129817;-39
2022/10/16 16:16:38;;;;;;;8.38;1.35;;;;;;;19.99;46.72;101423.91;16124134;19;129503;-39
2022/10/16 16:22:00;;;;;;;7.40;1.17;;;;;;;20.05;46.92;101419.31;16121217;19;131149;-39
2022/10/16 16:27:24;;;;;;;6.78;1.25;;;;;;;20.13;46.38;101424.47;16119876;19;129812;-38
2022/10/16 16:32:47;;;;;;;4.22;1.38;;;;;;;20.20;46.48;101424.34;16116608;19;129348;-39
2022/10/16 16:38:08;;;;;;;4.85;1.73;;;;;;;20.25;46.38;101421.69;16119328;19;129546;-39
2022/10/16 16:43:30;;;;;;;10.85;2.00;;;;;;;20.29;46.33;101430.38;16118233;19;129744;-39
2022/10/16 16:48:55;;;;;;;5.30;2.47;;;;;;;20.31;46.52;101430.16;16119149;19;129278;-39
2022/10/16 16:54:17;;;;;;;7.47;2.80;;;;;;;20.28;46.42;101425.91;16117128;19;130589;-40
2022/10/16 16:59:38;;;;;;;6.18;3.20;;;;;;;20.26;46.12;101437.28;16122517;19;129729;-39
2022/10/16 17:05:00;;;;;;;11.27;4.40;;;;;;;20.24;46.46;101433.06;16121241;19;131203;-39
2022/10/16 17:10:22;;;;;;;9.65;6.38;;;;;;;20.22;46.69;101436.06;16121220;19;129516;-39
2022/10/16 17:15:48;;;;;;;12.57;6.72;;;;;;;20.19;46.43;101431.00;16120820;19;129500;-39
2022/10/16 17:21:10;;;;;;;23.58;12.20;;;;;;;20.14;46.95;101448.41;16114966;19;129546;-38
2022/10/16 17:26:33;;;;;;;53.75;27.67;;;;;;;20.12;46.81;101444.19;16117222;19;129470;-41
2022/10/16 17:31:55;;;;;;;54.58;27.60;;;;;;;20.17;47.23;101505.41;16115184;19;129569;-38
2022/10/16 17:37:17;;;;;;;47.92;25.08;;;;;;;20.24;47.04;101555.31;16114925;19;129828;-39
2022/10/16 17:42:39;;;;;;;47.55;25.30;;;;;;;20.33;47.48;101531.63;16117549;19;129506;-39
2022/10/16 17:48:00;;;;;;;49.38;23.55;;;;;;;20.39;47.44;101518.69;16131299;19;129660;-39
2022/10/16 17:53:22;;;;;;;49.53;24.33;;;;;;;20.42;47.31;101546.00;16131322;19;130568;-39
2022/10/16 17:58:48;;;;;;;42.80;26.80;;;;;;;20.45;47.43;101557.47;16132297;19;129510;-39
2022/10/16 18:04:15;;;;;;;44.67;25.20;;;;;;;20.53;47.77;101561.81;16129680;19;130220;-39
2022/10/16 18:09:38;;;;;;;47.42;22.85;;;;;;;20.59;47.31;101544.13;16129876;19;130150;-41
2022/10/16 18:15:19;;;;;;;38.85;19.05;;;;;;;20.74;47.61;101520.53;16129904;19;129628;-40
2022/10/16 18:20:41;;;;;;;43.22;18.83;;;;;;;21.05;47.09;101523.94;16129057;19;130643;-40
2022/10/16 18:26:04;;;;;;;33.72;17.88;;;;;;;21.32;46.97;101528.91;16131057;19;129523;-39
2022/10/16 18:31:26;;;;;;;35.20;17.15;;;;;;;21.49;47.02;101537.31;16129121;19;129579;-40
2022/10/16 18:36:47;;;;;;;38.00;18.05;;;;;;;21.59;46.64;101536.66;16125971;19;129584;-40
2022/10/16 18:42:16;;;;;;;42.10;17.85;;;;;;;21.61;46.94;101537.25;16126346;19;130292;-39
2022/10/16 18:47:37;;;;;;;45.38;17.90;;;;;;;21.60;46.99;101518.84;16130476;19;129350;-43
2022/10/16 18:52:59;;;;;;;42.50;16.80;;;;;;;21.59;47.12;101545.00;16126571;19;129369;-40
2022/10/16 18:58:21;;;;;;;36.83;16.55;;;;;;;21.52;47.52;101548.81;16123071;19;129435;-40
2022/10/16 19:03:43;;;;;;;43.42;15.82;;;;;;;21.48;47.27;101564.28;16126798;19;129660;-39
2022/10/16 19:09:05;;;;;;;33.97;14.90;;;;;;;21.44;47.47;101568.66;16128692;19;129859;-39
2022/10/16 19:14:28;;;;;;;41.63;15.18;;;;;;;21.37;47.91;101554.88;16123708;19;130993;-42
2022/10/16 19:19:50;;;;;;;37.83;14.27;;;;;;;21.30;47.67;101533.88;16124672;19;130195;-41
2022/10/16 19:25:12;;;;;;;41.33;13.70;;;;;;;21.23;48.14;101534.06;16125449;19;129400;-41
2022/10/16 19:30:39;;;;;;;36.30;12.18;;;;;;;21.19;47.99;101543.97;16125034;19;129420;-40
2022/10/16 19:36:08;;;;;;;26.35;11.63;;;;;;;21.22;48.11;101543.50;16122182;19;129558;-39
2022/10/16 19:41:30;;;;;;;26.13;10.77;;;;;;;21.30;48.21;101533.88;16117704;19;129562;-39
2022/10/16 19:46:52;;;;;;;33.38;10.50;;;;;;;21.41;48.24;101546.03;16124091;19;130392;-40
2022/10/16 19:52:15;;;;;;;30.15;9.75;;;;;;;21.50;48.22;101534.28;16124453;19;129101;-39
2022/10/16 19:57:37;;;;;;;28.75;9.40;;;;;;;21.59;47.77;101531.94;16122916;19;129565;-40
2022/10/16 20:03:00;;;;;;;42.78;10.48;;;;;;;21.67;47.77;101527.88;16122542;19;130189;-40
2022/10/16 20:08:22;;;;;;;40.58;11.30;;;;;;;21.72;48.09;101530.75;16116135;19;129631;-40
2022/10/16 20:13:45;;;;;;;33.03;11.18;;;;;;;21.72;47.90;101530.75;16123233;19;129585;-40
2022/10/16 20:19:06;;;;;;;40.20;9.80;;;;;;;21.70;47.89;101526.53;16121514;19;129686;-39
2022/10/16 20:24:28;;;;;;;35.88;12.50;;;;;;;21.64;48.22;101522.81;16120990;19;130856;-39
2022/10/16 20:29:50;;;;;;;34.05;15.10;;;;;;;21.58;47.94;101519.13;16119697;19;129829;-39
2022/10/16 20:35:11;;;;;;;35.67;13.25;;;;;;;21.52;48.21;101509.84;16120431;19;129265;-40
2022/10/16 20:40:35;;;;;;;30.52;12.68;;;;;;;21.48;47.67;101514.16;16121309;19;130016;-39
2022/10/16 20:46:01;;;;;;;29.35;12.02;;;;;;;21.43;48.34;101502.09;16120722;19;130599;-39
2022/10/16 20:51:27;;;;;;;34.80;11.98;;;;;;;21.36;47.91;101493.91;16119724;19;129850;-39
2022/10/16 20:56:48;;;;;;;30.88;10.98;;;;;;;21.31;48.18;101479.91;16121240;19;130372;-40
2022/10/16 21:02:10;;;;;;;25.05;10.98;;;;;;;21.27;47.89;101476.78;16120025;19;129846;-46
2022/10/16 21:07:35;;;;;;;24.97;11.17;;;;;;;21.22;48.32;101474.75;16117391;19;134509;-37
2022/10/16 21:12:56;;;;;;;32.25;15.35;;;;;;;21.13;48.35;101481.81;16117633;19;131291;-37
2022/10/16 21:18:18;;;;;;;31.67;14.00;;;;;;;21.06;48.18;101493.13;16121156;19;129671;-37
2022/10/16 21:23:40;;;;;;;30.08;13.52;;;;;;;21.00;48.41;101488.53;16135384;19;131500;-37
2022/10/16 21:29:05;;;;;;;27.77;11.77;;;;;;;20.96;48.65;101492.91;16134877;19;130173;-37
2022/10/16 21:34:27;;;;;;;28.27;11.25;;;;;;;20.89;48.13;101493.06;16132658;19;129603;-37
2022/10/16 21:39:49;;;;;;;25.42;9.75;;;;;;;20.86;48.64;101488.00;16134605;19;130128;-38
2022/10/16 21:45:10;;;;;;;19.63;10.05;;;;;;;20.81;48.33;101487.88;16134360;19;128920;-39
2022/10/16 21:50:32;;;;;;;19.25;9.23;;;;;;;20.78;48.54;101502.31;16134896;19;129558;-37
2022/10/16 21:55:54;;;;;;;18.35;8.02;;;;;;;20.75;48.20;101503.63;16132780;19;129559;-38
2022/10/16 22:01:18;;;;;;;15.52;7.35;;;;;;;20.71;48.24;101494.06;16133482;19;129615;-37
2022/10/16 22:06:40;;;;;;;15.65;7.63;;;;;;;20.68;48.55;101489.00;16134480;19;130820;-37
2022/10/16 22:12:02;;;;;;;12.27;6.47;;;;;;;20.66;48.50;101479.22;16131723;19;129521;-38
2022/10/16 22:17:24;;;;;;;13.82;6.90;;;;;;;20.63;48.29;101485.25;16131358;19;129798;-37
2022/10/16 22:22:46;;;;;;;10.70;6.18;;;;;;;20.60;48.09;101470.75;16130928;19;129810;-37
2022/10/16 22:28:08;;;;;;;12.23;5.75;;;;;;;20.59;48.14;101484.91;16132240;19;130352;-37
2022/10/16 22:33:30;;;;;;;8.25;4.82;;;;;;;20.56;48.34;101480.69;16127442;19;129789;-37
2022/10/16 22:39:12;;;;;;;9.48;5.05;;;;;;;20.54;48.09;101463.44;16127804;19;129738;-37
2022/10/16 22:44:34;;;;;;;10.35;5.35;;;;;;;20.51;48.05;101450.00;16128782;19;129776;-37
2022/10/16 22:49:55;;;;;;;9.75;4.30;;;;;;;20.49;48.27;101460.53;16128800;19;129280;-37
2022/10/16 22:55:17;;;;;;;7.97;4.53;;;;;;;20.48;48.02;101460.78;16128452;19;129209;-37
2022/10/16 23:00:41;;;;;;;7.32;3.80;;;;;;;20.47;48.38;101462.69;16130735;19;131054;-37
2022/10/16 23:06:04;;;;;;;6.63;3.58;;;;;;;20.44;48.23;101454.84;16130441;19;129529;-38
2022/10/16 23:11:28;;;;;;;6.80;3.05;;;;;;;20.43;48.27;101455.97;16126779;19;129732;-37
2022/10/16 23:16:49;;;;;;;6.15;3.55;;;;;;;20.41;48.16;101450.63;16127230;19;129917;-38
2022/10/16 23:22:11;;;;;;;4.55;3.00;;;;;;;20.40;48.25;101445.34;16126427;19;130101;-37
2022/10/16 23:27:33;;;;;;;6.13;2.95;;;;;;;20.39;48.17;101449.19;16127770;19;129657;-37
2022/10/16 23:32:55;;;;;;;4.35;2.28;;;;;;;20.36;48.05;101450.53;16127469;19;133705;-38
2022/10/16 23:38:16;;;;;;;6.30;2.40;;;;;;;20.35;47.98;101446.06;16126386;19;129962;-37
2022/10/16 23:43:39;;;;;;;4.55;2.47;;;;;;;20.35;48.06;101448.00;16127830;19;129589;-38
2022/10/16 23:49:01;;;;;;;5.07;2.20;;;;;;;20.32;48.08;101441.00;16123438;19;129513;-38
2022/10/16 23:54:22;;;;;;;4.43;2.45;;;;;;;20.31;48.03;101433.75;16123195;19;129636;-37
2022/10/16 23:59:44;;;;;;;3.00;1.88;;;;;;;20.31;48.02;101432.94;16125052;19;129591;-37
